Flight Track Log - Related Links

Times and Time Zones

All times are in EST time to prevent confusion due to time zone crossing. See the N580HC flight status page for this flight to view local times or setup timezone preferences in your user account.

Time Position Orientation Groundspeed Altitude Reporting Facility
EST Latitude Longitude Course Direction KTS MPH feet Rate Location/Type
Wed 05:00:03 PM 33.6314 -112.0128 295° West 225 259 5,800  Level Albuquerque Center
Wed 05:01:05 PM 33.6794 -111.9814 29° Northeast 202 232 7,800 2,256 Climbing Albuquerque Center
Wed 05:02:08 PM 33.6836 -111.9075 86° East 225 259 10,500 2,784 Climbing Albuquerque Center
Wed 05:03:10 PM 33.6844 -111.8086 89° East 250 288 13,600 2,758 Climbing Albuquerque Center
Wed 05:04:12 PM 33.6850 -111.7178 90° East 273 314 16,200 2,468 Climbing Albuquerque Center
Wed 05:05:14 PM 33.6861 -111.6200 89° East 291 335 18,700 2,419 Climbing Albuquerque Center
Wed 05:06:16 PM 33.6869 -111.5189 89° East 305 351 21,200 2,468 Climbing Albuquerque Center
Wed 05:07:18 PM 33.6875 -111.3897 90° East 323 372 23,800 2,226 Climbing Albuquerque Center
Wed 05:08:20 PM 33.6892 -111.2717 89° East 354 407 25,800 1,984 Climbing Albuquerque Center
Wed 05:09:22 PM 33.7242 -111.1644 69° East 347 399 27,900 1,935 Climbing Albuquerque Center
Wed 05:10:24 PM 33.7639 -111.0597 65° Northeast 347 399 29,800 1,694 Climbing Albuquerque Center
Wed 05:11:26 PM 33.8011 -110.9503 68° East 353 406 31,400 1,742 Climbing Albuquerque Center
Wed 05:12:28 PM 33.8494 -110.8164 66° East 362 417 33,400 1,790 Climbing Albuquerque Center
Wed 05:13:30 PM 33.8881 -110.7047 67° East 363 418 35,100 1,597 Climbing Albuquerque Center
Wed 05:14:32 PM 33.9264 -110.5947 67° East 360 414 36,700 1,597 Climbing Albuquerque Center
Wed 05:15:34 PM 33.9639 -110.4886 67° East 352 405 38,400 1,548 Climbing Albuquerque Center
Wed 05:16:36 PM 34.0014 -110.3828 67° East 336 387 39,900 774 Climbing Albuquerque Center
Wed 05:17:38 PM 34.0356 -110.2800 68° East 332 382 40,000 48 Climbing Albuquerque Center
Wed 05:18:40 PM 34.0747 -110.1700 67° East 347 399 40,000  Level Albuquerque Center
Wed 05:19:42 PM 34.1194 -110.0431 67° East 372 428 40,000  Level Albuquerque Center
Wed 05:20:44 PM 34.1694 -109.8972 67° East 409 471 40,000 290 Level Albuquerque Center
Wed 05:21:46 PM 34.2136 -109.7664 68° East 430 495 40,600 484 Climbing Albuquerque Center
Wed 05:22:48 PM 34.2658 -109.6153 67° East 435 501 41,000 192 Climbing Albuquerque Center
Wed 05:23:51 PM 34.3111 -109.4814 68° East 442 509 41,000  Level Albuquerque Center
Wed 05:24:53 PM 34.3647 -109.3233 68° East 451 519 41,000  Level Albuquerque Center
Wed 05:25:55 PM 34.4111 -109.1856 68° East 457 526 41,000  Level Albuquerque Center
Wed 05:26:57 PM 34.4317 -109.0064 82° East 487 560 41,000  Level Albuquerque Center
Wed 05:27:59 PM 34.4347 -108.8503 89° East 491 565 41,000  Level Albuquerque Center
Wed 05:29:01 PM 34.4414 -108.6669 87° East 489 563 41,000  Level Albuquerque Center
Wed 05:30:03 PM 34.4467 -108.5106 88° East 487 560 41,000  Level Albuquerque Center
Wed 05:31:05 PM 34.4519 -108.3453 88° East 487 560 41,000  Level Albuquerque Center
Wed 05:32:07 PM 34.4561 -108.1817 88° East 488 562 41,000  Level Albuquerque Center
Wed 05:33:09 PM 34.4614 -108.0194 88° East 487 560 41,000  Level Albuquerque Center
Wed 05:34:11 PM 34.4664 -107.8242 88° East 485 558 41,000  Level Albuquerque Center
Wed 05:35:13 PM 34.4703 -107.6600 88° East 487 560 41,000  Level Albuquerque Center
Wed 05:36:15 PM 34.4731 -107.4978 89° East 487 560 41,000  Level Albuquerque Center
Wed 05:37:17 PM 34.4772 -107.3367 88° East 483 556 41,000  Level Albuquerque Center
Wed 05:38:18 PM 34.4831 -107.1431 88° East 487 560 41,000  Level Albuquerque Center
Wed 05:39:20 PM 34.4861 -106.9803 89° East 486 559 41,000  Level Albuquerque Center
Wed 05:40:22 PM 34.4889 -106.8169 89° East 487 560 41,000  Level Albuquerque Center
Wed 05:41:24 PM 34.4917 -106.6411 89° East 486 559 41,000  Level Albuquerque Center
Wed 05:42:26 PM 34.4931 -106.4908 89° East 489 563 41,000  Level Albuquerque Center
Wed 05:43:28 PM 34.4964 -106.3269 89° East 490 564 41,000  Level Albuquerque Center
Wed 05:44:30 PM 34.4992 -106.1331 89° East 482 555 41,000  Level Albuquerque Center
Wed 05:45:32 PM 34.4997 -105.9692 90° East 483 556 41,000  Level Albuquerque Center
Wed 05:46:34 PM 34.5011 -105.8042 89° East 485 558 41,000  Level Albuquerque Center
Wed 05:47:36 PM 34.5028 -105.6403 89° East 484 557 41,000  Level Albuquerque Center
Wed 05:48:38 PM 34.5039 -105.4778 89° East 481 554 41,000  Level Albuquerque Center
Wed 05:49:40 PM 34.5053 -105.3136 89° East 483 556 41,000  Level Albuquerque Center
Wed 05:50:42 PM 34.5064 -105.1511 89° East 481 554 41,000  Level Albuquerque Center
Wed 05:51:44 PM 34.5067 -104.9603 90° East 482 555 41,000  Level Albuquerque Center
Wed 05:52:46 PM 34.5075 -104.7972 90° East 482 555 41,000  Level Albuquerque Center
Wed 05:53:48 PM 34.5067 -104.6331 90° East 483 556 41,000  Level Albuquerque Center
Wed 05:54:50 PM 34.5075 -104.4686 90° East 485 558 41,000  Level Albuquerque Center
Wed 05:55:52 PM 34.5067 -104.3042 90° East 486 559 41,000  Level Albuquerque Center
Wed 05:56:54 PM 34.5061 -104.1378 90° East 489 563 41,000  Level Albuquerque Center
Wed 05:57:56 PM 34.5061 -103.9461 90° East 487 560 41,000  Level Albuquerque Center
Wed 05:58:57 PM 34.5050 -103.7819 90° East 486 559 41,000  Level Albuquerque Center
Wed 05:59:59 PM 34.5044 -103.6214 90° East 479 551 41,000  Level Albuquerque Center
Wed 06:01:01 PM 34.5025 -103.4656 91° East 466 536 41,000  Level Albuquerque Center
Wed 06:02:03 PM 34.5003 -103.3103 91° East 460 529 41,000  Level Albuquerque Center
Wed 06:03:05 PM 34.4994 -103.1572 90° East 454 522 41,000  Level Albuquerque Center
Wed 06:04:07 PM 34.4967 -102.9875 91° East 449 517 41,000  Level Albuquerque Center
Wed 06:05:09 PM 34.4950 -102.8289 91° East 448 516 41,000  Level Albuquerque Center
Wed 06:06:11 PM 34.4781 -102.6842 98° East 457 526 41,000  Level Albuquerque Center
Wed 06:07:13 PM 34.4633 -102.5294 97° East 464 534 41,000  Level Albuquerque Center
Wed 06:08:15 PM 34.4469 -102.3744 97° East 465 535 41,000  Level Albuquerque Center
Wed 06:09:16 PM 34.4269 -102.1853 97° East 471 542 41,000  Level Albuquerque Center
Wed 06:10:18 PM 34.4097 -102.0292 98° East 472 543 41,000  Level Albuquerque Center
Wed 06:11:20 PM 34.3928 -101.8719 97° East 473 544 41,000  Level Albuquerque Center
Wed 06:12:22 PM 34.3758 -101.7156 97° East 473 544 41,000  Level Albuquerque Center
Wed 06:13:13 PM 34.3619 -101.5894 98° East 471 542 41,000  Level Fort Worth Center
Wed 06:14:16 PM 34.3406 -101.4003 98° East 472 543 41,000  Level Fort Worth Center
Wed 06:15:18 PM 34.3225 -101.2431 98° East 473 544 41,000  Level Fort Worth Center
Wed 06:16:20 PM 34.3050 -101.0878 98° East 472 543 41,000  Level Fort Worth Center
Wed 06:17:22 PM 34.2875 -100.9336 98° East 471 542 41,000  Level Fort Worth Center
Wed 06:18:24 PM 34.2689 -100.7806 98° East 468 539 41,000  Level Fort Worth Center
Wed 06:19:26 PM 34.2289 -100.6011 105° East 471 542 41,000  Level Fort Worth Center
Wed 06:20:28 PM 34.1931 -100.4508 106° East 468 539 41,000 -387 Level Fort Worth Center
Wed 06:21:30 PM 34.1617 -100.3222 106° East 468 539 40,200 -1,016 Descending Fort Worth Center
Wed 06:22:32 PM 34.1189 -100.1372 106° East 471 542 38,900 -1,056 Descending Fort Worth Center
Wed 06:23:35 PM 34.0828 -99.9853 106° East 471 542 38,000 -1,152 Descending Fort Worth Center
Wed 06:24:37 PM 34.0475 -99.8406 106° East 454 522 36,500 -1,548 Descending Fort Worth Center
Wed 06:25:39 PM 34.0122 -99.6939 106° East 454 522 34,800 -1,645 Descending Fort Worth Center
Wed 06:26:41 PM 33.9767 -99.5436 106° East 461 531 33,100 -1,597 Descending Fort Worth Center
Wed 06:27:43 PM 33.9417 -99.4014 106° East 448 516 31,500 -1,742 Descending Fort Worth Center
Wed 06:28:45 PM 33.9008 -99.2347 106° East 434 499 29,500 -1,790 Descending Fort Worth Center
Wed 06:29:47 PM 33.8650 -99.0889 106° East 448 516 27,800 -1,694 Descending Fort Worth Center
Wed 06:30:49 PM 33.8264 -98.9383 107° East 449 517 26,000 -1,645 Descending Fort Worth Center
Wed 06:31:51 PM 33.7944 -98.8022 106° East 446 513 24,400 -1,056 Descending Fort Worth Center
Wed 06:32:54 PM 33.7561 -98.6550 107° East 445 512 23,800 -1,296 Descending Fort Worth Center
Wed 06:33:56 PM 33.7186 -98.5036 107° East 434 499 21,700 -1,887 Descending Fort Worth Center
Wed 06:34:58 PM 33.6831 -98.3636 107° East 421 484 19,900 -1,694 Descending Fort Worth Center
Wed 06:36:00 PM 33.6489 -98.2281 107° East 408 470 18,200 -1,597 Descending Fort Worth Center
Wed 06:37:02 PM 33.6139 -98.0914 107° East 409 471 16,600 -1,645 Descending Fort Worth Center
Wed 06:38:04 PM 33.5814 -97.9625 107° East 390 449 14,800 -1,548 Descending Fort Worth Center
Wed 06:39:06 PM 33.5464 -97.8369 108° East 390 449 13,400 -1,355 Descending Fort Worth Center
Wed 06:40:08 PM 33.5197 -97.7328 107° East 327 376 12,000 -1,296 Descending Fort Worth Center
Wed 06:41:11 PM 33.4922 -97.6308 108° East 305 351 10,700 -1,296 Descending Fort Worth Center
Wed 06:42:13 PM 33.4639 -97.5381 110° East 303 349 9,300 -1,694 Descending Fort Worth Center
Wed 06:43:15 PM 33.4039 -97.4642 134° Southeast 290 334 7,200 -1,984 Descending Fort Worth Center
Wed 06:44:17 PM 33.3511 -97.3947 132° Southeast 286 329 5,200 -1,935 Descending Fort Worth Center
Wed 06:45:19 PM 33.3008 -97.3289 132° Southeast 274 315 3,200 -1,403 Descending Fort Worth Center
Wed 06:46:21 PM 33.2500 -97.2667 134° Southeast 240 276 2,300 -443 Descending Dallas / Fort Worth TRACON
Wed 06:47:21 PM 33.2000 -97.2333 151° Southeast 174 200 2,300 -400 Level Dallas / Fort Worth TRACON
Wed 06:48:21 PM 33.1667 -97.2167 157° South 142 163 1,500 -800 Descending Dallas / Fort Worth TRACON
Wed 06:51:00 PM 33.2000 -97.1833 129° Southeast  Level FlightAware Approximate
Wed 06:58:00 PM 33.2021 -97.1980 129° Southeast  Level Estimated

Login

Don't have an account? Register now (free) for customized features, flight alerts, and more!